Airfield :
LOGIN :

Register | Disclaimer

   EN    FR    IT 

 










Legend :    VFR   Marginal VFR   IFR   Intensive IFR   Very Intensive IFR
Visi :
Ceiling :
>= 8 km
>= 3000ft
5 to 8 km
1000 to 3000 ft
1500m to 5 km
500 to 1000 ft
800 to 1500m
200 to 500 ft
< 800m
< 200 ft
Symbols :   Thunderstorms  Fog  Heavy snow  Heavy precipitations  Wind > 20 kt
SIGMETs :     Misc.  Thunderstorms  Icing  Turbulence  Mountain Waves  Volcanic Ashes






- Airport Elevation : 584 ft


LFPV - Villacoublay Vélizy

CURRENT METAR :
  • 081000Z AUTO 20004KT 160V240 9999 OVC005 01/01 Q1011 BECMG BKN015

EXPIRED METARs :
  • 080930Z AUTO 20004KT 170V230 9999 OVC005 01/01 Q1011 BECMG BKN015
  • 080900Z AUTO 22004KT 190V250 9999 OVC005 01/01 Q1011 NOSIG
  • 080830Z AUTO 23004KT 5000 R27/1000U BR VV/// 01/01 Q1011 BECMG BKN015
  • 080800Z AUTO VRB03KT 1000 0750 R27/1300U R09/0900U BCFG VV/// 01/01 Q1011 BECMG 5000 BR BKN008
  • 080730Z AUTO 23004KT 200V260 0800 0650 R27/0900N R09/1000D FG VV/// 01/01 Q1011 BECMG 5000 BR BKN008

TAF TAF LFPV
Valid from the 08 at 09:00 until the 09 at 09:00 UTC


080800Z 0809/0909 24003KT 1000 BR OVC003 TX04/0815Z TNM02/0906Z
BECMG 0809/0811 5000 NSW BKN006
BECMG 0811/0812 9999 BKN015
BECMG 0818/0820 4000 BR BKN006
PROB40
TEMPO 0903/0907 0500 FZFG VV///



MET'MAP, your aeronautical weather chart ! - Copyright ORBIFLY December 2007 - Disclaimer

ORBIFLY MET'MAP TEAM :

Programming & Development : Alexandra Zaïnal
Original concept : Baudouin d'Aumeries
Technical & hardware support : Manuel Goepfert
Assistance : Marc-Olivier Méhu




SOURCES & CREDITS :

   NOAA